Time;durP1;ratioP1;P1;durP2;ratioP2;P2;SDS_P1;SDS_P2;PMS_P1;PMS_P2;Temp;Humidity;BMP_temperature;BMP_pressure;BME280_temperature;BME280_humidity;BME280_pressure;Samples;Min_cycle;Max_cycle;Signal;HPM_P1;HPM_P2
2023/06/10 00:00:24;;;;;;;0.10;0.10;;;;;;;17.08;66.90;97315.50;5031030;28;20052;-72
2023/06/10 00:02:52;;;;;;;0.03;0.03;;;;;;;16.99;67.77;97327.75;5025849;28;20049;-72
2023/06/10 00:05:21;;;;;;;0.10;0.10;;;;;;;16.86;67.96;97318.06;5031592;28;20037;-72
2023/06/10 00:07:49;;;;;;;0.03;0.03;;;;;;;16.80;68.19;97321.75;5027030;28;20132;-72
2023/06/10 00:10:17;;;;;;;0.08;0.08;;;;;;;16.76;68.24;97322.44;5033488;28;20046;-72
2023/06/10 00:12:44;;;;;;;0.10;0.10;;;;;;;16.73;68.24;97325.63;5023560;28;20044;-72
2023/06/10 00:15:12;;;;;;;0.15;0.15;;;;;;;16.87;67.55;97317.00;5031886;28;20041;-72
2023/06/10 00:17:40;;;;;;;0.10;0.10;;;;;;;16.99;66.72;97310.75;5022592;28;20045;-73
2023/06/10 00:20:11;;;;;;;0.10;0.10;;;;;;;16.51;68.82;97322.72;5028633;28;20390;-73
2023/06/10 00:22:41;;;;;;;0.10;0.10;;;;;;;16.50;68.33;97324.63;5021914;28;20038;-73
2023/06/10 00:25:10;;;;;;;0.08;0.08;;;;;;;16.56;68.24;97325.53;5029175;28;20495;-73
2023/06/10 00:27:38;;;;;;;0.10;0.10;;;;;;;16.50;68.77;97334.59;5024950;28;20417;-72
2023/06/10 00:30:07;;;;;;;0.10;0.10;;;;;;;16.35;69.42;97335.09;5032519;28;20045;-73
2023/06/10 00:32:35;;;;;;;0.10;0.10;;;;;;;16.79;67.21;97333.59;5011721;28;20592;-73
2023/06/10 00:35:03;;;;;;;0.10;0.10;;;;;;;16.58;68.33;97336.09;5016361;28;20089;-72
2023/06/10 00:37:34;;;;;;;0.10;0.10;;;;;;;16.63;67.35;97337.03;5027835;28;20049;-72
2023/06/10 00:40:03;;;;;;;0.10;0.10;;;;;;;16.41;68.70;97331.44;5031045;28;20053;-73
2023/06/10 00:42:32;;;;;;;0.10;0.10;;;;;;;16.44;68.40;97335.53;5015121;28;20120;-73
2023/06/10 00:45:00;;;;;;;0.10;0.10;;;;;;;16.29;69.70;97325.28;5031195;28;20072;-73
2023/06/10 00:47:28;;;;;;;0.10;0.10;;;;;;;16.15;70.18;97337.34;5012224;28;20056;-72
2023/06/10 00:49:55;;;;;;;0.10;0.10;;;;;;;16.10;70.08;97331.84;5017996;28;20045;-72
2023/06/10 00:52:25;;;;;;;0.15;0.15;;;;;;;16.04;70.49;97346.25;5010812;28;20092;-70
2023/06/10 00:54:54;;;;;;;0.20;0.10;;;;;;;16.20;69.63;97331.22;5032337;28;20042;-70
2023/06/10 00:57:22;;;;;;;0.08;0.08;;;;;;;16.14;69.97;97333.00;5007492;28;20042;-72
2023/06/10 00:59:50;;;;;;;0.10;0.10;;;;;;;16.15;69.76;97334.66;5030441;28;20045;-72
2023/06/10 01:02:17;;;;;;;0.10;0.10;;;;;;;16.40;68.50;97329.78;5028118;28;20128;-71
2023/06/10 01:04:48;;;;;;;0.05;0.05;;;;;;;16.40;68.34;97324.41;5031889;28;20041;-71
2023/06/10 01:07:21;;;;;;;0.00;0.00;;;;;;;15.98;70.31;97336.44;5029806;28;20046;-71
2023/06/10 01:09:55;;;;;;;0.10;0.10;;;;;;;16.04;69.66;97335.47;5025027;28;20033;-70
2023/06/10 01:12:29;;;;;;;0.17;0.17;;;;;;;15.95;69.76;97337.72;5029957;28;20042;-70
2023/06/10 01:14:56;;;;;;;0.10;0.10;;;;;;;15.87;70.01;97334.56;5034188;28;20486;-70
2023/06/10 01:17:24;;;;;;;0.20;0.20;;;;;;;15.73;70.80;97326.72;5000960;28;20045;-70
2023/06/10 01:19:55;;;;;;;0.10;0.10;;;;;;;15.96;69.70;97328.59;5006859;28;20074;-70
2023/06/10 01:22:25;;;;;;;0.10;0.10;;;;;;;15.87;69.72;97335.38;5018197;28;20041;-70
2023/06/10 01:24:53;;;;;;;0.10;0.10;;;;;;;15.90;69.25;97336.78;5028423;28;20037;-70
2023/06/10 01:27:22;;;;;;;0.10;0.10;;;;;;;15.86;69.05;97332.94;5027583;28;20501;-70
2023/06/10 01:29:55;;;;;;;0.10;0.10;;;;;;;15.81;69.41;97330.91;5013225;28;20132;-71
2023/06/10 01:32:28;;;;;;;0.10;0.10;;;;;;;15.84;68.91;97330.47;5009761;28;20051;-71
2023/06/10 01:34:56;;;;;;;0.00;0.00;;;;;;;15.60;70.43;97332.31;5011297;28;20053;-71
2023/06/10 01:37:27;;;;;;;0.20;0.20;;;;;;;15.52;71.03;97326.44;5026994;28;20045;-71
2023/06/10 01:39:58;;;;;;;0.10;0.10;;;;;;;15.40;71.91;97335.31;5025795;28;20045;-72
2023/06/10 01:42:26;;;;;;;0.10;0.10;;;;;;;15.36;72.16;97325.25;5028616;28;20453;-72
2023/06/10 01:44:54;;;;;;;0.10;0.10;;;;;;;15.30;72.53;97328.84;5029923;28;20042;-71
2023/06/10 01:47:21;;;;;;;0.10;0.10;;;;;;;15.14;72.66;97321.47;5027544;28;20401;-71
2023/06/10 01:49:49;;;;;;;0.10;0.10;;;;;;;15.12;72.82;97319.00;5029928;28;20099;-72
2023/06/10 01:52:17;;;;;;;0.20;0.13;;;;;;;15.19;71.98;97326.97;5011905;28;20572;-71
2023/06/10 01:54:46;;;;;;;0.20;0.20;;;;;;;15.10;72.95;97329.16;5032578;28;20504;-71
2023/06/10 01:57:13;;;;;;;0.10;0.10;;;;;;;15.09;73.12;97326.69;5005673;28;20033;-71
2023/06/10 01:59:44;;;;;;;0.10;0.10;;;;;;;15.02;73.49;97337.56;5007727;28;20044;-71
2023/06/10 02:02:11;;;;;;;0.10;0.10;;;;;;;15.05;73.08;97335.22;5013996;28;20052;-71
2023/06/10 02:04:39;;;;;;;0.10;0.10;;;;;;;15.05;73.25;97337.91;5015373;28;20037;-71
2023/06/10 02:07:07;;;;;;;0.10;0.10;;;;;;;15.06;72.93;97339.53;5010937;28;20059;-71
2023/06/10 02:09:35;;;;;;;0.10;0.10;;;;;;;15.07;72.73;97340.38;5029434;28;20065;-71
2023/06/10 02:12:06;;;;;;;0.10;0.10;;;;;;;14.94;73.39;97349.47;5027361;28;20080;-71
2023/06/10 02:14:34;;;;;;;0.17;0.17;;;;;;;15.16;72.50;97351.63;5033576;28;20052;-71
2023/06/10 02:17:02;;;;;;;0.10;0.10;;;;;;;15.30;72.09;97350.38;5026809;28;20124;-71
2023/06/10 02:19:30;;;;;;;0.10;0.10;;;;;;;15.43;71.51;97359.06;5022793;28;20060;-72
2023/06/10 02:21:58;;;;;;;0.10;0.10;;;;;;;15.50;70.90;97358.94;5024096;28;20041;-71
2023/06/10 02:24:25;;;;;;;0.13;0.13;;;;;;;15.46;70.99;97360.47;5031513;28;20121;-71
2023/06/10 02:26:54;;;;;;;0.13;0.13;;;;;;;15.40;71.28;97356.00;5023572;28;20050;-71
2023/06/10 02:29:23;;;;;;;0.10;0.10;;;;;;;15.25;71.82;97348.38;5008361;28;20044;-71
2023/06/10 02:31:52;;;;;;;0.17;0.17;;;;;;;15.35;71.18;97339.75;5003126;28;20513;-71
2023/06/10 02:34:20;;;;;;;0.17;0.17;;;;;;;15.10;72.30;97356.06;5016570;28;20409;-71
2023/06/10 02:36:51;;;;;;;0.10;0.10;;;;;;;15.18;71.99;97360.28;5030439;28;20030;-72
2023/06/10 02:39:20;;;;;;;0.10;0.10;;;;;;;15.06;72.22;97362.91;5026153;28;20091;-71
2023/06/10 02:41:49;;;;;;;0.10;0.10;;;;;;;15.04;72.02;97360.47;5012736;28;20045;-71
2023/06/10 02:44:18;;;;;;;0.10;0.10;;;;;;;14.90;72.93;97356.34;5016564;28;20128;-71
2023/06/10 02:46:48;;;;;;;0.20;0.20;;;;;;;14.67;73.66;97353.53;5004469;28;20037;-71
2023/06/10 02:49:16;;;;;;;0.10;0.10;;;;;;;14.85;72.64;97360.72;5031972;28;20045;-71
2023/06/10 02:51:45;;;;;;;0.10;0.10;;;;;;;15.00;72.09;97370.03;5010171;28;20037;-71
2023/06/10 02:54:14;;;;;;;0.20;0.20;;;;;;;15.08;71.91;97366.22;5011128;28;20046;-71
2023/06/10 02:56:42;;;;;;;0.10;0.10;;;;;;;15.15;71.83;97376.88;5010503;28;20044;-71
2023/06/10 02:59:16;;;;;;;0.10;0.10;;;;;;;15.20;71.55;97366.25;5006601;28;20045;-71
2023/06/10 03:01:44;;;;;;;0.10;0.10;;;;;;;15.16;71.66;97373.94;5012427;28;20133;-71
2023/06/10 03:04:14;;;;;;;0.20;0.20;;;;;;;15.10;71.54;97377.56;5005661;28;20057;-71
2023/06/10 03:06:50;;;;;;;0.10;0.10;;;;;;;15.08;71.91;97387.72;5024979;28;20100;-71
2023/06/10 03:09:24;;;;;;;0.20;0.20;;;;;;;15.05;71.92;97385.50;5005973;28;20041;-71
2023/06/10 03:11:55;;;;;;;0.10;0.10;;;;;;;14.99;72.16;97387.22;5002373;28;20056;-71
2023/06/10 03:14:24;;;;;;;0.20;0.20;;;;;;;15.12;71.66;97382.72;5012798;28;20094;-69
2023/06/10 03:16:52;;;;;;;0.10;0.10;;;;;;;15.17;71.64;97382.81;5002866;28;20042;-70
2023/06/10 03:19:23;;;;;;;0.20;0.20;;;;;;;15.20;71.44;97385.06;5002667;28;20042;-71
2023/06/10 03:22:08;;;;;;;0.10;0.10;;;;;;;15.05;72.36;97386.28;5001728;28;20042;-71
2023/06/10 03:24:39;;;;;;;0.13;0.13;;;;;;;15.18;71.76;97390.66;5026909;28;20041;-71
2023/06/10 03:27:10;;;;;;;0.10;0.10;;;;;;;15.07;72.43;97384.19;5001959;28;20070;-70
2023/06/10 03:29:40;;;;;;;0.10;0.10;;;;;;;15.06;72.11;97401.38;5012223;28;20048;-73
2023/06/10 03:32:08;;;;;;;0.10;0.10;;;;;;;14.94;73.00;97403.22;5003772;28;20045;-71
2023/06/10 03:34:39;;;;;;;0.10;0.10;;;;;;;15.03;72.47;97399.16;5025637;28;20519;-71
2023/06/10 03:37:07;;;;;;;0.10;0.10;;;;;;;15.15;71.87;97407.28;5010610;28;20049;-71
2023/06/10 03:39:35;;;;;;;0.15;0.15;;;;;;;15.03;72.31;97412.59;5005639;28;20543;-71
2023/06/10 03:42:03;;;;;;;0.10;0.10;;;;;;;14.85;72.69;97406.41;5003407;28;20493;-71
2023/06/10 03:44:33;;;;;;;0.10;0.10;;;;;;;14.65;72.94;97409.34;5008339;28;20481;-71
2023/06/10 03:47:01;;;;;;;0.15;0.15;;;;;;;14.57;73.30;97412.34;5011260;28;20408;-71
2023/06/10 03:49:30;;;;;;;0.10;0.10;;;;;;;14.53;73.01;97408.50;5029026;28;20042;-70
2023/06/10 03:52:02;;;;;;;0.10;0.10;;;;;;;14.46;73.19;97407.72;5009045;28;20087;-71
2023/06/10 03:54:31;;;;;;;0.10;0.10;;;;;;;14.42;73.54;97412.72;5013161;28;20387;-71
2023/06/10 03:56:59;;;;;;;0.10;0.10;;;;;;;14.42;73.55;97411.91;5001019;28;20050;-71
2023/06/10 03:59:26;;;;;;;0.10;0.10;;;;;;;14.46;73.29;97418.47;5012067;28;20465;-71
2023/06/10 04:01:54;;;;;;;0.10;0.10;;;;;;;14.49;73.18;97423.41;5032887;28;20045;-71
2023/06/10 04:04:22;;;;;;;0.20;0.20;;;;;;;14.51;72.60;97413.25;5018068;28;20054;-72
2023/06/10 04:06:50;;;;;;;0.10;0.10;;;;;;;14.38;73.37;97419.56;5038300;28;20061;-72
2023/06/10 04:09:19;;;;;;;0.15;0.15;;;;;;;14.35;73.67;97420.00;5034549;28;20045;-72
2023/06/10 04:11:48;;;;;;;0.10;0.10;;;;;;;14.40;73.52;97430.09;5038249;28;20068;-72
2023/06/10 04:14:15;;;;;;;0.20;0.20;;;;;;;14.42;73.76;97431.53;5016016;28;20050;-71
2023/06/10 04:16:43;;;;;;;0.10;0.10;;;;;;;14.51;73.51;97432.06;5028639;28;20459;-73
2023/06/10 04:19:12;;;;;;;0.20;0.20;;;;;;;14.42;74.19;97428.03;5027617;28;20151;-72
2023/06/10 04:21:40;;;;;;;0.20;0.20;;;;;;;14.44;74.20;97428.59;5028678;28;20049;-70
2023/06/10 04:24:08;;;;;;;0.10;0.10;;;;;;;14.49;73.68;97426.91;5014564;28;20076;-70
2023/06/10 04:26:38;;;;;;;0.10;0.10;;;;;;;14.57;73.54;97420.41;5028690;28;20128;-73
2023/06/10 04:29:06;;;;;;;0.10;0.10;;;;;;;14.68;73.27;97422.34;5029694;28;20420;-73
2023/06/10 04:31:34;;;;;;;0.10;0.10;;;;;;;14.75;72.89;97416.88;5011382;28;20103;-71
2023/06/10 04:34:02;;;;;;;0.10;0.10;;;;;;;14.81;72.84;97414.13;5032281;28;20117;-72
2023/06/10 04:36:30;;;;;;;0.13;0.13;;;;;;;14.87;72.62;97415.91;5028634;28;20049;-71
2023/06/10 04:38:57;;;;;;;0.10;0.10;;;;;;;14.82;72.74;97421.16;5029806;28;20415;-72
2023/06/10 04:41:27;;;;;;;0.10;0.10;;;;;;;14.87;73.11;97412.41;5020076;28;20052;-72
2023/06/10 04:43:57;;;;;;;0.20;0.20;;;;;;;15.10;72.18;97414.38;5033332;28;20477;-71
2023/06/10 04:46:25;;;;;;;0.15;0.15;;;;;;;15.06;72.50;97422.88;5014527;28;20080;-72
2023/06/10 04:48:54;;;;;;;0.10;0.10;;;;;;;15.14;72.22;97415.56;5031735;28;20092;-71
2023/06/10 04:51:22;;;;;;;0.10;0.10;;;;;;;15.35;71.81;97409.69;5009082;28;20042;-72
2023/06/10 04:53:49;;;;;;;0.20;0.20;;;;;;;15.42;71.65;97415.78;5007638;28;20180;-71
2023/06/10 04:56:17;;;;;;;0.17;0.17;;;;;;;15.45;71.30;97420.69;5024043;28;20042;-70
2023/06/10 04:58:45;;;;;;;0.17;0.17;;;;;;;15.51;71.60;97414.38;5034034;28;20041;-71
2023/06/10 05:01:14;;;;;;;0.15;0.15;;;;;;;15.59;71.37;97422.16;5022239;28;20052;-70
2023/06/10 05:03:41;;;;;;;0.10;0.10;;;;;;;15.66;71.53;97422.06;5032849;28;20045;-70
2023/06/10 05:06:09;;;;;;;0.10;0.10;;;;;;;15.82;71.22;97421.38;5022981;28;20541;-71
2023/06/10 05:08:37;;;;;;;0.17;0.17;;;;;;;15.91;70.72;97424.53;5029376;28;20043;-70
2023/06/10 05:11:04;;;;;;;0.10;0.10;;;;;;;16.01;70.69;97427.47;5023279;28;20038;-71
2023/06/10 05:13:32;;;;;;;0.10;0.10;;;;;;;16.05;70.72;97424.09;5021781;28;20049;-73
2023/06/10 05:16:00;;;;;;;0.20;0.20;;;;;;;16.08;70.34;97426.34;5021447;28;20033;-72
2023/06/10 05:18:29;;;;;;;0.10;0.10;;;;;;;16.17;70.71;97423.28;5024497;28;20061;-71
2023/06/10 05:20:56;;;;;;;0.10;0.10;;;;;;;16.35;70.42;97423.16;5031693;28;20501;-72
2023/06/10 05:23:24;;;;;;;0.20;0.20;;;;;;;16.35;70.69;97420.47;5028474;28;20041;-71
2023/06/10 05:25:51;;;;;;;0.13;0.13;;;;;;;16.49;70.59;97419.19;5027686;28;20409;-71
2023/06/10 05:28:19;;;;;;;0.10;0.10;;;;;;;16.67;70.30;97429.00;5029160;28;20123;-71
2023/06/10 05:30:47;;;;;;;0.10;0.10;;;;;;;16.82;70.14;97418.53;5024401;28;20500;-72
2023/06/10 05:33:14;;;;;;;0.10;0.10;;;;;;;16.97;69.78;97420.72;5026667;28;20045;-72
2023/06/10 05:35:43;;;;;;;0.20;0.20;;;;;;;17.05;69.32;97420.34;5022267;28;20046;-72
2023/06/10 05:38:11;;;;;;;0.17;0.17;;;;;;;17.07;69.19;97416.34;5028576;28;20041;-72
2023/06/10 05:40:38;;;;;;;0.20;0.20;;;;;;;17.22;69.11;97416.66;5027918;28;20409;-71
2023/06/10 05:43:06;;;;;;;0.10;0.10;;;;;;;17.18;69.16;97420.88;5026483;28;20050;-71
2023/06/10 05:45:33;;;;;;;0.10;0.10;;;;;;;17.35;68.63;97425.50;5028650;28;20045;-72
2023/06/10 05:48:01;;;;;;;0.20;0.20;;;;;;;17.45;68.18;97421.09;5025363;28;20041;-72
2023/06/10 05:50:29;;;;;;;0.20;0.20;;;;;;;17.58;67.81;97422.69;5034461;28;20045;-72
2023/06/10 05:52:57;;;;;;;0.10;0.10;;;;;;;17.48;68.01;97417.94;5028168;28;20061;-72
2023/06/10 05:55:25;;;;;;;0.15;0.15;;;;;;;17.59;68.09;97424.31;5023987;28;20425;-72
2023/06/10 05:57:59;;;;;;;0.10;0.10;;;;;;;17.72;67.65;97417.81;5023034;28;20473;-71
2023/06/10 06:00:27;;;;;;;0.13;0.13;;;;;;;17.85;67.63;97421.03;5024837;28;20509;-72
2023/06/10 06:02:55;;;;;;;0.10;0.10;;;;;;;17.98;66.80;97419.88;5023494;28;20054;-70
2023/06/10 06:05:23;;;;;;;0.10;0.10;;;;;;;18.00;66.60;97425.03;5028626;28;20064;-71
2023/06/10 06:07:50;;;;;;;0.10;0.10;;;;;;;17.97;66.68;97429.03;5019519;28;20048;-71
2023/06/10 06:10:19;;;;;;;0.10;0.10;;;;;;;18.01;66.91;97423.97;5023017;28;20405;-71
2023/06/10 06:12:47;;;;;;;0.10;0.10;;;;;;;18.12;66.57;97421.19;5029311;28;20050;-72
2023/06/10 06:15:15;;;;;;;0.00;0.00;;;;;;;18.27;66.27;97428.72;5025251;28;20406;-71
2023/06/10 06:17:42;;;;;;;0.10;0.10;;;;;;;18.41;65.67;97429.16;5023551;28;20046;-72
2023/06/10 06:20:10;;;;;;;0.10;0.10;;;;;;;18.49;65.29;97428.72;5031381;28;20124;-72
2023/06/10 06:22:38;;;;;;;0.10;0.10;;;;;;;18.54;65.01;97426.94;5026795;28;20045;-71
2023/06/10 06:25:06;;;;;;;0.13;0.13;;;;;;;18.51;65.09;97426.59;5030340;28;20037;-70
2023/06/10 06:27:36;;;;;;;0.28;0.20;;;;;;;18.53;65.29;97433.41;5024841;28;20054;-72
2023/06/10 06:30:05;;;;;;;0.13;0.13;;;;;;;18.61;65.31;97435.69;5027119;28;20087;-72
2023/06/10 06:32:33;;;;;;;0.20;0.20;;;;;;;18.56;65.11;97435.63;5029820;28;21210;-73
2023/06/10 06:35:01;;;;;;;0.10;0.10;;;;;;;18.69;64.98;97434.44;5027572;28;20500;-72
2023/06/10 06:37:28;;;;;;;0.08;0.08;;;;;;;18.65;64.99;97436.03;5026337;28;20375;-71
2023/06/10 06:40:13;;;;;;;0.10;0.10;;;;;;;18.80;64.76;97435.41;5031256;28;20041;-72
2023/06/10 06:42:42;;;;;;;0.20;0.20;;;;;;;18.83;64.72;97440.31;5029751;28;20048;-71
2023/06/10 06:45:25;;;;;;;0.10;0.10;;;;;;;18.89;64.63;97439.31;5032433;28;20091;-72
2023/06/10 06:47:53;;;;;;;0.10;0.10;;;;;;;18.98;64.31;97437.81;5021632;28;20065;-73
2023/06/10 06:50:20;;;;;;;0.10;0.10;;;;;;;19.09;64.11;97436.06;5032950;28;20037;-73
2023/06/10 06:52:48;;;;;;;0.10;0.10;;;;;;;19.18;63.86;97438.06;5027182;28;20041;-72
2023/06/10 06:55:16;;;;;;;0.10;0.10;;;;;;;19.29;63.63;97437.09;5031041;28;20037;-72
2023/06/10 06:57:44;;;;;;;0.17;0.17;;;;;;;19.14;63.64;97434.22;5026443;28;20060;-72
2023/06/10 07:00:13;;;;;;;0.10;0.10;;;;;;;19.27;63.61;97441.94;5013585;28;20052;-73
2023/06/10 07:02:41;;;;;;;0.20;0.20;;;;;;;19.32;63.93;97439.28;5024765;28;20127;-74
2023/06/10 07:05:09;;;;;;;0.10;0.10;;;;;;;19.46;63.56;97436.19;5029489;28;20041;-74
2023/06/10 07:07:37;;;;;;;0.10;0.10;;;;;;;19.55;63.10;97440.91;5020637;28;20103;-73
2023/06/10 07:10:05;;;;;;;0.10;0.10;;;;;;;19.64;62.95;97444.78;5026699;28;20045;-73
2023/06/10 07:12:33;;;;;;;0.10;0.10;;;;;;;19.65;62.87;97442.91;5018091;28;20061;-74
2023/06/10 07:15:02;;;;;;;0.20;0.20;;;;;;;19.79;62.53;97444.13;5025270;28;20037;-72
2023/06/10 07:17:30;;;;;;;0.10;0.10;;;;;;;19.86;62.58;97442.00;5022122;28;20076;-73
2023/06/10 07:19:59;;;;;;;0.10;0.10;;;;;;;20.02;62.17;97449.22;5020730;28;20099;-73
2023/06/10 07:22:27;;;;;;;0.05;0.05;;;;;;;20.16;61.84;97453.09;5006112;28;20501;-72
2023/06/10 07:24:55;;;;;;;0.10;0.10;;;;;;;20.25;61.69;97448.00;5021838;28;20060;-73
2023/06/10 07:27:23;;;;;;;0.10;0.10;;;;;;;20.27;61.78;97442.34;5021742;28;20041;-74
2023/06/10 07:29:51;;;;;;;0.10;0.10;;;;;;;20.38;61.67;97453.03;5028852;28;20049;-73
2023/06/10 07:32:22;;;;;;;0.10;0.10;;;;;;;20.60;61.45;97444.75;5022418;28;20061;-72
2023/06/10 07:34:50;;;;;;;0.10;0.10;;;;;;;20.76;60.59;97442.97;5021483;28;20070;-73
2023/06/10 07:37:19;;;;;;;0.00;0.00;;;;;;;21.01;59.96;97442.25;5025439;28;20053;-73
2023/06/10 07:39:47;;;;;;;0.00;0.00;;;;;;;21.21;59.18;97436.94;5034970;28;20030;-73
2023/06/10 07:42:14;;;;;;;0.10;0.10;;;;;;;21.47;59.28;97445.97;5027532;28;20045;-74
2023/06/10 07:44:42;;;;;;;0.10;0.10;;;;;;;21.63;58.12;97444.09;5027156;28;20037;-73
2023/06/10 07:47:09;;;;;;;0.00;0.00;;;;;;;21.89;57.38;97443.06;5032069;28;20091;-71
2023/06/10 07:49:39;;;;;;;0.10;0.10;;;;;;;22.07;57.04;97439.00;5034796;28;20147;-71
2023/06/10 07:52:08;;;;;;;0.00;0.00;;;;;;;22.04;56.58;97444.97;5031929;28;20056;-72
2023/06/10 07:54:35;;;;;;;0.03;0.03;;;;;;;21.95;56.22;97437.34;5032833;28;20054;-73
2023/06/10 07:57:03;;;;;;;0.10;0.10;;;;;;;22.27;55.99;97437.09;5019390;28;20371;-73
2023/06/10 07:59:31;;;;;;;0.15;0.15;;;;;;;22.48;55.85;97437.88;5033963;28;20038;-72
2023/06/10 08:01:58;;;;;;;0.10;0.10;;;;;;;22.70;54.78;97440.28;5029007;28;20412;-73
2023/06/10 08:04:26;;;;;;;0.10;0.10;;;;;;;22.88;54.25;97444.34;5032139;28;20552;-71
2023/06/10 08:06:56;;;;;;;0.10;0.10;;;;;;;23.09;53.46;97443.19;5023960;28;20045;-71
2023/06/10 08:09:23;;;;;;;0.10;0.10;;;;;;;23.20;52.71;97438.50;5015148;28;20476;-71
2023/06/10 08:11:51;;;;;;;0.10;0.10;;;;;;;23.18;52.95;97444.22;5026934;28;20520;-73
2023/06/10 08:14:19;;;;;;;0.03;0.03;;;;;;;23.35;53.16;97441.19;5026464;28;20508;-71
2023/06/10 08:16:47;;;;;;;0.10;0.10;;;;;;;23.53;52.48;97424.19;5022742;28;20121;-72
2023/06/10 08:19:14;;;;;;;0.10;0.10;;;;;;;23.60;51.75;97426.59;5023980;28;20552;-70
2023/06/10 08:21:42;;;;;;;0.10;0.10;;;;;;;23.75;51.78;97431.97;5028250;28;20042;-73
2023/06/10 08:24:11;;;;;;;0.03;0.03;;;;;;;23.84;51.31;97432.16;5029895;28;20033;-72
2023/06/10 08:26:39;;;;;;;0.00;0.00;;;;;;;23.95;51.24;97440.00;5027208;28;20104;-70
2023/06/10 08:29:07;;;;;;;0.00;0.00;;;;;;;24.22;50.22;97431.34;5032112;28;20037;-71
2023/06/10 08:31:34;;;;;;;0.00;0.00;;;;;;;24.09;50.53;97440.97;5024850;28;20046;-73
2023/06/10 08:34:02;;;;;;;0.00;0.00;;;;;;;24.37;50.00;97439.41;5029948;28;20048;-72
2023/06/10 08:36:30;;;;;;;0.00;0.00;;;;;;;24.58;49.51;97433.75;5030558;28;20038;-72
2023/06/10 08:38:57;;;;;;;0.03;0.03;;;;;;;24.71;49.49;97444.78;5032467;28;20045;-71
2023/06/10 08:41:29;;;;;;;0.10;0.08;;;;;;;24.85;49.26;97434.81;5032427;28;20041;-72
2023/06/10 08:44:02;;;;;;;0.00;0.00;;;;;;;24.93;48.28;97441.56;5029079;28;20505;-73
2023/06/10 08:46:32;;;;;;;0.00;0.00;;;;;;;24.85;48.58;97439.44;5021304;28;20055;-73
2023/06/10 08:49:02;;;;;;;0.10;0.10;;;;;;;24.93;48.88;97443.47;5030394;28;20136;-71
2023/06/10 08:51:30;;;;;;;0.00;0.00;;;;;;;24.92;48.97;97436.38;5030141;28;20048;-72
2023/06/10 08:54:02;;;;;;;0.10;0.10;;;;;;;25.06;48.77;97438.16;5030249;28;20449;-72
2023/06/10 08:56:33;;;;;;;0.10;0.10;;;;;;;25.11;48.25;97440.81;5022667;28;20069;-71
2023/06/10 08:59:01;;;;;;;0.05;0.05;;;;;;;25.20;47.98;97441.00;5029339;28;20038;-70
2023/06/10 09:01:29;;;;;;;0.10;0.10;;;;;;;25.30;47.86;97446.31;5024523;28;20044;-71
2023/06/10 09:03:57;;;;;;;0.03;0.03;;;;;;;25.44;47.93;97446.41;5030662;28;20515;-72
2023/06/10 09:06:26;;;;;;;0.10;0.10;;;;;;;25.48;47.65;97429.13;5026326;28;20032;-72
2023/06/10 09:09:01;;;;;;;0.00;0.00;;;;;;;25.43;48.58;97426.47;5026485;28;20401;-72
2023/06/10 09:11:32;;;;;;;0.00;0.00;;;;;;;25.30;47.94;97435.41;5025680;28;20046;-72
2023/06/10 09:14:00;;;;;;;0.00;0.00;;;;;;;25.57;48.01;97429.28;5021842;28;20038;-72
2023/06/10 09:16:27;;;;;;;0.10;0.10;;;;;;;25.64;48.13;97429.78;5030248;28;20049;-73
2023/06/10 09:18:55;;;;;;;0.00;0.00;;;;;;;25.85;47.64;97417.38;5025604;28;20049;-72
2023/06/10 09:21:23;;;;;;;0.10;0.10;;;;;;;25.90;47.50;97417.31;5029629;28;20045;-73
2023/06/10 09:23:51;;;;;;;0.10;0.10;;;;;;;26.06;47.12;97430.78;5030133;28;20049;-72
2023/06/10 09:26:19;;;;;;;0.00;0.00;;;;;;;25.70;47.95;97428.56;5009917;28;20445;-72
2023/06/10 09:28:50;;;;;;;0.00;0.00;;;;;;;25.91;47.72;97431.81;5029798;28;20057;-72
2023/06/10 09:31:21;;;;;;;0.00;0.00;;;;;;;25.91;48.14;97434.53;5025472;28;20041;-72
2023/06/10 09:33:49;;;;;;;0.00;0.00;;;;;;;25.92;47.83;97431.53;5024561;28;20405;-72
2023/06/10 09:36:23;;;;;;;0.00;0.00;;;;;;;26.07;47.79;97440.56;5024386;28;20095;-72
2023/06/10 09:38:51;;;;;;;0.00;0.00;;;;;;;26.09;48.05;97436.44;5025034;28;20052;-72
2023/06/10 09:41:19;;;;;;;0.00;0.00;;;;;;;26.24;47.58;97443.59;5029557;28;20049;-72
2023/06/10 09:43:48;;;;;;;0.00;0.00;;;;;;;26.24;47.07;97441.69;5032291;28;20136;-73
2023/06/10 09:46:18;;;;;;;0.10;0.10;;;;;;;26.30;47.35;97434.22;5029594;28;20046;-72
2023/06/10 09:48:48;;;;;;;0.10;0.10;;;;;;;26.27;47.83;97441.09;5031616;28;20041;-72
2023/06/10 09:51:17;;;;;;;0.00;0.00;;;;;;;26.43;47.54;97430.69;5023846;28;20037;-72
2023/06/10 09:53:48;;;;;;;0.00;0.00;;;;;;;26.67;47.20;97438.75;5023620;28;20048;-73
2023/06/10 09:56:16;;;;;;;0.10;0.10;;;;;;;26.75;47.23;97439.97;5028063;28;20045;-73
2023/06/10 09:58:46;;;;;;;0.00;0.00;;;;;;;26.95;45.98;97443.19;5023052;28;20051;-71
2023/06/10 10:01:15;;;;;;;0.20;0.20;;;;;;;27.08;45.51;97438.81;5015060;28;20728;-71
2023/06/10 10:03:50;;;;;;;0.00;0.00;;;;;;;27.19;45.00;97442.16;5026242;28;20056;-72
2023/06/10 10:06:19;;;;;;;0.10;0.10;;;;;;;27.18;44.95;97438.63;5026895;28;20405;-71
2023/06/10 10:08:48;;;;;;;0.00;0.00;;;;;;;26.87;45.74;97437.56;5027561;28;20045;-72
2023/06/10 10:11:18;;;;;;;0.00;0.00;;;;;;;26.71;46.11;97444.44;5024056;28;20046;-70
2023/06/10 10:13:46;;;;;;;0.00;0.00;;;;;;;26.54;46.27;97437.63;5028727;28;20046;-72
2023/06/10 10:16:16;;;;;;;0.00;0.00;;;;;;;26.69;46.50;97442.00;5033635;28;20113;-72
2023/06/10 10:18:49;;;;;;;0.00;0.00;;;;;;;26.88;46.23;97430.97;5026619;28;20038;-72
2023/06/10 10:21:17;;;;;;;0.00;0.00;;;;;;;27.01;45.56;97424.69;5021182;28;20122;-71
2023/06/10 10:23:49;;;;;;;0.00;0.00;;;;;;;26.94;45.92;97422.38;5028657;28;20046;-72
2023/06/10 10:26:17;;;;;;;0.00;0.00;;;;;;;26.87;46.15;97421.13;5024997;28;20046;-72
2023/06/10 10:28:49;;;;;;;0.00;0.00;;;;;;;26.67;46.41;97420.41;5030631;28;20038;-72
2023/06/10 10:31:19;;;;;;;0.00;0.00;;;;;;;26.62;46.94;97427.88;5026602;28;20088;-72
2023/06/10 10:33:56;;;;;;;0.00;0.00;;;;;;;26.07;47.76;97418.69;5029584;28;20045;-72
2023/06/10 10:36:24;;;;;;;0.03;0.03;;;;;;;26.13;48.21;97420.25;5024078;28;20038;-73
2023/06/10 10:38:52;;;;;;;0.00;0.00;;;;;;;26.05;48.74;97424.47;5030567;28;20049;-72
2023/06/10 10:41:20;;;;;;;0.00;0.00;;;;;;;26.03;47.96;97428.63;5031134;28;20045;-71
2023/06/10 10:43:48;;;;;;;0.00;0.00;;;;;;;26.08;47.45;97418.38;5017942;28;20053;-72
2023/06/10 10:46:18;;;;;;;0.00;0.00;;;;;;;26.18;46.94;97423.69;5029917;28;20038;-72
2023/06/10 10:48:46;;;;;;;0.00;0.00;;;;;;;26.12;47.32;97415.88;5032378;28;20037;-72
2023/06/10 10:51:16;;;;;;;0.10;0.10;;;;;;;26.22;47.69;97421.19;5027703;28;20048;-72
2023/06/10 10:53:44;;;;;;;0.00;0.00;;;;;;;26.35;47.54;97425.91;5030317;28;20047;-71
2023/06/10 10:56:14;;;;;;;0.10;0.10;;;;;;;26.34;46.41;97424.28;5026465;28;20053;-72
2023/06/10 10:58:42;;;;;;;0.00;0.00;;;;;;;26.16;47.29;97420.44;5027655;28;20041;-71
2023/06/10 11:01:13;;;;;;;0.00;0.00;;;;;;;26.12;46.75;97421.34;5031262;28;20049;-72
2023/06/10 11:03:46;;;;;;;0.05;0.05;;;;;;;26.15;45.46;97429.78;5025111;28;20401;-72
2023/06/10 11:06:16;;;;;;;0.00;0.00;;;;;;;25.69;45.43;97429.69;5027431;28;20042;-72
2023/06/10 11:08:48;;;;;;;0.08;0.00;;;;;;;25.59;45.67;97424.31;5030022;28;20073;-72
2023/06/10 11:11:20;;;;;;;0.00;0.00;;;;;;;25.34;47.17;97439.16;5025892;28;20091;-72
2023/06/10 11:14:08;;;;;;;0.13;0.10;;;;;;;25.08;53.15;97438.66;5023445;28;20557;-71
2023/06/10 11:16:40;;;;;;;0.00;0.00;;;;;;;24.96;53.17;97432.00;5030021;28;20072;-72
2023/06/10 11:19:08;;;;;;;0.00;0.00;;;;;;;24.86;52.59;97432.88;5021789;28;20128;-72
2023/06/10 11:22:00;;;;;;;0.10;0.10;;;;;;;24.71;51.40;97430.34;5030554;28;20049;-72
2023/06/10 11:24:29;;;;;;;0.00;0.00;;;;;;;24.47;49.99;97438.50;5020788;28;20045;-72
2023/06/10 11:27:15;;;;;;;0.00;0.00;;;;;;;24.54;51.49;97438.97;5029837;28;20098;-71
2023/06/10 11:29:56;;;;;;;0.00;0.00;;;;;;;24.49;51.73;97437.09;5022113;28;20050;-73
2023/06/10 11:32:24;;;;;;;0.00;0.00;;;;;;;24.55;50.96;97431.59;5030822;28;20037;-73
2023/06/10 11:34:53;;;;;;;0.10;0.10;;;;;;;24.80;51.23;97443.06;5020338;28;20056;-73
2023/06/10 11:37:23;;;;;;;0.00;0.00;;;;;;;25.16;50.22;97440.75;5030704;28;20117;-72
2023/06/10 11:39:52;;;;;;;0.00;0.00;;;;;;;25.39;49.48;97441.81;5025415;28;20069;-73
2023/06/10 11:42:20;;;;;;;0.00;0.00;;;;;;;25.54;48.57;97432.63;5034830;28;20038;-74